Time;durP1;ratioP1;P1;durP2;ratioP2;P2;SDS_P1;SDS_P2;PMS_P1;PMS_P2;Temp;Humidity;BMP_temperature;BMP_pressure;BME280_temperature;BME280_humidity;BME280_pressure;Samples;Min_cycle;Max_cycle;Signal;HPM_P1;HPM_P2
2021/12/04 00:01:57;;;;;;;;;0.00;0.00;;;;;12.26;68.53;100485.81;5058915;28;45516;-77
2021/12/04 00:04:30;;;;;;;;;0.00;0.00;;;;;12.16;68.56;100481.22;5058142;28;46084;-76
2021/12/04 00:06:56;;;;;;;;;0.00;0.00;;;;;12.00;68.98;100487.84;5058275;28;45379;-78
2021/12/04 00:09:22;;;;;;;;;1.00;0.00;;;;;12.00;68.83;100493.06;5058287;28;45334;-77
2021/12/04 00:11:54;;;;;;;;;0.00;0.00;;;;;11.91;69.03;100485.88;5058925;28;45228;-79
2021/12/04 00:14:20;;;;;;;;;0.00;0.00;;;;;11.81;68.69;100482.09;5054446;28;45472;-73
2021/12/04 00:16:46;;;;;;;;;0.00;0.00;;;;;11.85;69.18;100498.78;5058289;28;45537;-79
2021/12/04 00:19:12;;;;;;;;;1.00;1.00;;;;;11.78;68.81;100496.84;5058315;28;45525;-78
2021/12/04 00:21:38;;;;;;;;;0.00;0.00;;;;;11.71;68.94;100495.81;5058405;28;45377;-79
2021/12/04 00:24:04;;;;;;;;;0.00;0.00;;;;;11.69;69.07;100495.78;5057835;28;46098;-73
2021/12/04 00:26:29;;;;;;;;;0.00;0.00;;;;;11.63;69.36;100495.63;5058600;28;45677;-80
2021/12/04 00:28:55;;;;;;;;;0.00;0.00;;;;;11.61;69.23;100502.56;5058327;28;45604;-80
2021/12/04 00:31:20;;;;;;;;;0.33;0.00;;;;;11.60;69.01;100495.56;5058490;28;45374;-76
2021/12/04 00:33:47;;;;;;;;;0.33;0.00;;;;;11.55;69.15;100491.94;5058068;28;46015;-76
2021/12/04 00:36:51;;;;;;;;;0.00;0.00;;;;;11.51;69.59;100477.91;5058408;28;45393;-78
2021/12/04 00:49:56;;;;;;;;;0.00;0.00;;;;;11.27;69.58;100456.38;5057250;28;45329;-79
2021/12/04 00:52:22;;;;;;;;;1.00;1.00;;;;;11.23;69.50;100451.91;5057891;28;45413;-75
2021/12/04 00:54:47;;;;;;;;;0.00;0.00;;;;;11.10;69.31;100437.59;5057790;28;45504;-79
2021/12/04 00:57:13;;;;;;;;;0.00;0.00;;;;;11.10;69.79;100453.28;5057573;28;45413;-78
2021/12/04 00:59:39;;;;;;;;;1.00;1.00;;;;;11.06;69.77;100448.84;5051715;28;45403;-79
2021/12/04 01:02:05;;;;;;;;;2.00;2.00;;;;;10.93;69.60;100430.22;5057752;28;45440;-78
2021/12/04 01:04:31;;;;;;;;;2.00;1.00;;;;;10.95;69.54;100435.50;5055897;28;46579;-71
2021/12/04 01:06:57;;;;;;;;;1.50;1.50;;;;;10.84;69.58;100421.25;5056942;28;45500;-72
2021/12/04 01:09:24;;;;;;;;;2.33;1.67;;;;;10.88;69.81;100441.38;5057208;28;45463;-71
2021/12/04 01:11:52;;;;;;;;;0.00;0.00;;;;;10.80;69.93;100428.09;5056763;28;45556;-79
2021/12/04 01:14:21;;;;;;;;;3.00;2.25;;;;;10.75;69.98;100427.13;5057373;28;45453;-78
2021/12/04 01:16:47;;;;;;;;;1.67;1.67;;;;;10.70;69.96;100420.88;5057290;28;45487;-76
2021/12/04 01:19:18;;;;;;;;;2.67;2.67;;;;;10.56;70.21;100407.41;5055723;28;45554;-74
2021/12/04 01:21:44;;;;;;;;;2.33;2.00;;;;;10.51;70.33;100396.84;5055113;28;45521;-71
2021/12/04 01:24:10;;;;;;;;;3.00;2.00;;;;;10.57;70.22;100406.59;5056880;28;45363;-76
2021/12/04 01:26:35;;;;;;;;;2.00;2.00;;;;;10.57;70.35;100403.09;5081253;27;45419;-73
2021/12/04 01:29:01;;;;;;;;;3.00;3.00;;;;;10.48;69.86;100386.31;5056874;28;45413;-71
2021/12/04 01:31:27;;;;;;;;;2.00;2.00;;;;;10.51;69.94;100395.97;5057431;28;45364;-74
2021/12/04 01:33:53;;;;;;;;;3.25;3.00;;;;;10.53;69.84;100402.13;5056814;28;45288;-71
2021/12/04 01:36:18;;;;;;;;;2.50;2.50;;;;;10.37;70.05;100374.69;5056904;28;45501;-72
2021/12/04 01:38:44;;;;;;;;;3.00;2.67;;;;;10.40;69.84;100390.44;5056816;28;45425;-72
2021/12/04 01:41:10;;;;;;;;;2.33;2.33;;;;;10.44;69.96;100396.63;5057296;28;45601;-72
2021/12/04 01:43:36;;;;;;;;;3.33;3.33;;;;;10.32;70.15;100386.72;5056556;28;46131;-72
2021/12/04 01:46:02;;;;;;;;;3.00;3.00;;;;;10.29;70.12;100392.72;5056713;28;45531;-71
2021/12/04 01:48:28;;;;;;;;;2.00;2.00;;;;;10.25;70.37;100390.00;5056732;28;45476;-71
2021/12/04 01:50:55;;;;;;;;;2.33;2.00;;;;;10.25;70.34;100397.81;5056709;28;45473;-70
2021/12/04 01:53:21;;;;;;;;;2.00;2.00;;;;;10.23;70.36;100389.06;5054405;28;45464;-71
2021/12/04 01:55:46;;;;;;;;;4.00;2.67;;;;;10.19;70.42;100388.09;5055648;28;45494;-70
2021/12/04 01:58:12;;;;;;;;;3.25;3.00;;;;;10.14;70.49;100393.16;5057034;28;45601;-73
2021/12/04 02:00:40;;;;;;;;;4.00;3.00;;;;;10.10;70.69;100395.63;5055457;28;45596;-71
2021/12/04 02:03:08;;;;;;;;;3.67;2.67;;;;;10.03;70.98;100388.50;5056293;28;46286;-71
2021/12/04 02:05:38;;;;;;;;;3.00;2.75;;;;;10.00;70.96;100386.66;5056307;28;45328;-70
2021/12/04 02:08:06;;;;;;;;;3.00;2.00;;;;;9.95;71.02;100378.69;5054210;28;45359;-71
2021/12/04 02:10:31;;;;;;;;;3.67;3.00;;;;;9.84;71.17;100359.22;5055609;28;45473;-73
2021/12/04 02:12:57;;;;;;;;;17.25;15.00;;;;;9.90;70.89;100380.25;5056160;28;45891;-71
2021/12/04 02:15:23;;;;;;;;;2.50;2.25;;;;;9.90;71.14;100377.66;5056377;28;45498;-73
2021/12/04 02:17:49;;;;;;;;;3.00;3.00;;;;;9.80;70.70;100357.34;5056756;28;45438;-73
2021/12/04 02:20:18;;;;;;;;;14.75;10.75;;;;;9.84;71.13;100367.03;5056415;28;45420;-73
2021/12/04 02:22:44;;;;;;;;;3.25;3.25;;;;;9.81;71.08;100353.00;5053636;28;45579;-72
2021/12/04 02:25:10;;;;;;;;;11.75;8.75;;;;;9.72;71.20;100346.69;5056213;28;45597;-70
2021/12/04 02:27:37;;;;;;;;;20.00;16.50;;;;;9.71;71.19;100359.72;5046494;28;45353;-70
2021/12/04 02:30:15;;;;;;;;;41.75;32.25;;;;;9.72;70.77;100356.25;5056201;28;45473;-72
2021/12/04 02:32:41;;;;;;;;;16.75;15.50;;;;;9.71;71.28;100350.16;5055881;28;46226;-72
2021/12/04 02:35:09;;;;;;;;;6.00;5.00;;;;;9.73;70.91;100338.03;5056046;28;45466;-78
2021/12/04 02:37:36;;;;;;;;;5.00;4.67;;;;;9.76;70.76;100340.72;5056199;28;45503;-77
2021/12/04 02:40:08;;;;;;;;;2.33;1.67;;;;;9.80;70.72;100339.09;5054142;28;45989;-76
2021/12/04 02:42:34;;;;;;;;;2.00;2.00;;;;;9.84;70.37;100333.13;5055770;28;45511;-78
2021/12/04 02:45:01;;;;;;;;;5.00;4.00;;;;;9.84;70.39;100322.69;5055736;28;45492;-79
2021/12/04 02:47:28;;;;;;;;;2.00;2.00;;;;;9.82;70.16;100320.88;5056068;28;45515;-78
2021/12/04 02:49:55;;;;;;;;;2.33;2.00;;;;;9.84;70.11;100314.00;5055867;28;45430;-72
2021/12/04 02:52:21;;;;;;;;;2.00;2.00;;;;;9.84;70.00;100308.78;5043646;28;45460;-78
2021/12/04 02:54:49;;;;;;;;;2.00;2.00;;;;;9.74;69.88;100297.19;5046297;28;45556;-77
2021/12/04 02:57:17;;;;;;;;;2.00;2.00;;;;;9.78;69.84;100303.38;5055729;28;45592;-78
2021/12/04 02:59:43;;;;;;;;;2.67;2.00;;;;;9.79;69.95;100307.72;5053968;28;45784;-74
2021/12/04 03:04:44;;;;;;;;;2.00;2.00;;;;;9.79;69.98;100300.81;5050302;28;45460;-77
2021/12/04 03:07:10;;;;;;;;;0.67;0.67;;;;;9.68;69.46;100276.13;5055685;28;45388;-78
2021/12/04 03:09:36;;;;;;;;;2.00;2.00;;;;;9.85;69.13;100295.78;5055740;28;45719;-77
2021/12/04 03:12:03;;;;;;;;;2.00;1.00;;;;;9.86;69.34;100289.69;5055569;28;45957;-78
2021/12/04 03:14:28;;;;;;;;;2.00;2.00;;;;;9.79;69.16;100274.72;5055902;28;45505;-78
2021/12/04 03:16:54;;;;;;;;;3.00;2.67;;;;;9.94;68.84;100274.25;5055994;28;45400;-78
2021/12/04 03:19:19;;;;;;;;;2.00;2.00;;;;;9.94;68.76;100258.59;5057791;28;45339;-78
2021/12/04 03:21:45;;;;;;;;;1.00;1.00;;;;;9.98;68.60;100247.41;5056661;28;45469;-77
2021/12/04 03:24:13;;;;;;;;;1.00;1.00;;;;;10.05;68.27;100235.44;5056949;28;45408;-77
2021/12/04 03:26:40;;;;;;;;;1.00;1.00;;;;;10.08;68.04;100225.94;5055869;28;45437;-77
2021/12/04 03:29:10;;;;;;;;;2.00;1.00;;;;;10.07;68.19;100225.91;5057696;28;45262;-78
2021/12/04 03:31:48;;;;;;;;;1.00;1.00;;;;;10.06;67.84;100218.91;5059328;28;45437;-77
2021/12/04 03:42:25;;;;;;;;;2.75;2.50;;;;;10.37;66.57;100211.94;5056786;28;45451;-78
2021/12/04 03:44:50;;;;;;;;;2.33;2.00;;;;;10.42;65.96;100205.97;5057166;28;45496;-78
2021/12/04 03:47:19;;;;;;;;;9.25;7.75;;;;;10.45;66.06;100205.19;5056818;28;45360;-79
2021/12/04 03:49:44;;;;;;;;;5.00;5.00;;;;;10.57;66.00;100202.88;5056991;28;45609;-78
2021/12/04 03:52:10;;;;;;;;;8.67;5.67;;;;;10.63;65.58;100196.91;5056811;28;45894;-79
2021/12/04 03:54:36;;;;;;;;;3.00;3.00;;;;;10.61;65.29;100175.09;5057932;28;45460;-79
2021/12/04 03:57:04;;;;;;;;;3.33;2.33;;;;;10.74;64.98;100195.41;5057332;28;45300;-80
2021/12/04 03:59:35;;;;;;;;;3.00;3.00;;;;;10.77;65.46;100190.28;5056887;28;45477;-80
2021/12/04 04:02:03;;;;;;;;;4.00;3.67;;;;;10.84;64.88;100188.69;5056141;28;45453;-79
2021/12/04 04:04:28;;;;;;;;;2.67;2.00;;;;;10.92;64.45;100190.63;5056408;28;45446;-78
2021/12/04 04:06:54;;;;;;;;;0.67;0.67;;;;;11.01;64.19;100181.22;5057003;28;45707;-78
2021/12/04 04:09:20;;;;;;;;;1.00;1.00;;;;;11.06;63.71;100177.88;5056828;28;45361;-79
2021/12/04 04:11:47;;;;;;;;;2.00;1.33;;;;;11.20;63.83;100200.81;5056624;28;46045;-79
2021/12/04 04:14:13;;;;;;;;;3.00;2.00;;;;;11.28;64.20;100192.28;5056358;28;45283;-77
2021/12/04 04:16:40;;;;;;;;;1.00;1.00;;;;;11.39;63.10;100189.91;5056093;28;45335;-79
2021/12/04 04:19:07;;;;;;;;;1.00;1.00;;;;;11.46;61.09;100197.03;5054867;28;45488;-79
2021/12/04 04:21:39;;;;;;;;;0.33;0.33;;;;;11.57;61.91;100194.63;5054267;28;46380;-79
2021/12/04 04:24:06;;;;;;;;;2.00;2.00;;;;;11.61;61.44;100198.19;5052039;28;45433;-79
2021/12/04 04:26:32;;;;;;;;;0.00;0.00;;;;;11.61;61.46;100200.81;5054843;28;45630;-79
2021/12/04 04:28:57;;;;;;;;;1.00;1.00;;;;;11.64;62.39;100191.28;5054691;28;45432;-71
2021/12/04 04:31:23;;;;;;;;;1.67;1.67;;;;;11.59;62.28;100178.97;5054696;28;45484;-71
2021/12/04 04:33:48;;;;;;;;;1.00;1.00;;;;;11.66;61.12;100188.72;5055935;28;45599;-73
2021/12/04 04:38:47;;;;;;;;;1.00;0.00;;;;;11.70;61.26;100182.69;5060006;28;45208;-71
2021/12/04 04:57:57;;;;;;;;;1.00;1.00;;;;;11.78;61.02;100182.81;5059317;28;45492;-73
2021/12/04 05:11:23;;;;;;;;;0.00;0.00;;;;;11.79;62.13;100180.22;5059212;28;45231;-74
2021/12/04 05:13:48;;;;;;;;;0.33;0.00;;;;;11.68;61.50;100166.94;5058792;28;45958;-72
2021/12/04 05:16:17;;;;;;;;;2.33;2.00;;;;;11.82;61.47;100192.50;5058982;28;45424;-72
2021/12/04 05:19:01;;;;;;;;;1.00;1.00;;;;;11.81;61.72;100182.88;5059285;28;45466;-72
2021/12/04 05:21:26;;;;;;;;;7.00;5.00;;;;;11.75;60.96;100173.16;5059417;28;45293;-71
2021/12/04 05:23:54;;;;;;;;;1.00;1.00;;;;;11.89;61.19;100187.41;5058616;28;45333;-72
2021/12/04 05:26:25;;;;;;;;;1.00;1.00;;;;;11.96;60.51;100201.53;5058860;28;45411;-72
2021/12/04 05:28:52;;;;;;;;;5.00;4.00;;;;;11.91;60.21;100197.94;5059076;28;45396;-73
2021/12/04 05:31:18;;;;;;;;;5.00;5.00;;;;;11.98;60.39;100214.63;5058808;28;45620;-72
2021/12/04 05:33:44;;;;;;;;;3.00;3.00;;;;;11.98;60.60;100209.38;5057987;28;45413;-73
2021/12/04 05:36:10;;;;;;;;;1.00;1.00;;;;;11.96;60.91;100198.91;5058906;28;45421;-73
2021/12/04 05:38:36;;;;;;;;;1.00;1.00;;;;;11.99;60.74;100196.34;5058921;28;45292;-72
2021/12/04 05:41:03;;;;;;;;;0.00;0.00;;;;;12.05;60.00;100201.69;5059145;28;45496;-71
2021/12/04 05:43:29;;;;;;;;;1.00;0.00;;;;;11.98;60.12;100184.13;5058889;28;45518;-72
2021/12/04 05:46:16;;;;;;;;;7.00;6.67;;;;;12.06;59.65;100200.84;5058453;28;45512;-72
2021/12/04 05:48:50;;;;;;;;;2.00;2.00;;;;;12.09;59.79;100205.25;5058774;28;45474;-72
2021/12/04 05:54:30;;;;;;;;;2.00;2.00;;;;;12.10;59.92;100199.16;5058227;28;45872;-71
2021/12/04 05:56:53;;;;;;;;;3.00;2.00;;;;;12.08;60.24;100196.50;5058224;28;45476;-71
2021/12/04 05:59:19;;;;;;;;;3.00;3.00;;;;;12.13;59.46;100197.47;5058509;28;45399;-71
2021/12/04 06:01:44;;;;;;;;;0.00;0.00;;;;;12.16;59.57;100201.03;5058562;28;45365;-79
2021/12/04 06:04:10;;;;;;;;;2.00;2.00;;;;;12.10;60.16;100193.94;5058195;28;45293;-76
2021/12/04 06:06:36;;;;;;;;;0.00;0.00;;;;;12.22;59.60;100206.38;5058229;28;45413;-71
2021/12/04 06:09:02;;;;;;;;;1.00;0.00;;;;;12.20;59.72;100197.59;5058180;28;45491;-71
2021/12/04 06:11:29;;;;;;;;;0.33;0.00;;;;;12.27;59.25;100212.53;5058935;28;45303;-72
2021/12/04 06:13:56;;;;;;;;;0.00;0.00;;;;;12.20;59.02;100205.47;5058055;28;45459;-73
2021/12/04 06:16:22;;;;;;;;;2.33;2.33;;;;;12.26;59.06;100227.38;5058219;28;45338;-72
2021/12/04 06:18:51;;;;;;;;;2.00;2.00;;;;;12.27;58.79;100225.63;5058217;28;45433;-71
2021/12/04 06:24:00;;;;;;;;;4.00;4.00;;;;;12.25;59.44;100232.59;5058031;28;45298;-72
2021/12/04 06:26:26;;;;;;;;;2.00;2.00;;;;;12.18;59.63;100221.13;5055143;28;45558;-71
2021/12/04 06:28:52;;;;;;;;;5.00;4.00;;;;;12.22;59.17;100215.09;5056085;28;45552;-72
2021/12/04 06:31:17;;;;;;;;;1.00;0.00;;;;;12.30;59.51;100231.81;5056280;28;45526;-72
2021/12/04 06:33:43;;;;;;;;;1.00;0.00;;;;;12.32;59.50;100239.72;5055983;28;45877;-72
2021/12/04 06:36:11;;;;;;;;;4.00;4.00;;;;;12.31;59.15;100249.31;5055926;28;45497;-71
2021/12/04 06:38:37;;;;;;;;;3.00;3.00;;;;;12.31;59.06;100249.31;5056142;28;45485;-71
2021/12/04 06:41:04;;;;;;;;;7.75;7.25;;;;;12.31;59.54;100238.84;5056013;28;45451;-73
2021/12/04 06:43:31;;;;;;;;;0.00;0.00;;;;;12.34;58.99;100246.72;5056041;28;46088;-71
2021/12/04 06:46:00;;;;;;;;;6.67;6.00;;;;;12.36;59.65;100240.66;5056326;28;45501;-72
2021/12/04 06:48:36;;;;;;;;;12.75;12.50;;;;;12.36;59.82;100240.66;5055707;28;45322;-77
2021/12/04 06:51:13;;;;;;;;;17.00;13.75;;;;;12.36;59.92;100238.03;5054165;28;45514;-71
2021/12/04 06:53:47;;;;;;;;;18.50;18.00;;;;;12.23;60.06;100231.69;5055802;28;45452;-73
2021/12/04 06:56:13;;;;;;;;;18.00;15.75;;;;;12.26;60.13;100239.59;5053379;28;45884;-71
2021/12/04 06:58:39;;;;;;;;;4.00;4.00;;;;;12.32;59.93;100255.44;5055836;28;45588;-71
2021/12/04 07:01:10;;;;;;;;;3.00;3.00;;;;;12.21;60.29;100238.63;5055944;28;45512;-76
2021/12/04 07:03:37;;;;;;;;;5.33;5.33;;;;;12.25;60.57;100248.31;5055564;28;46260;-75
2021/12/04 07:06:04;;;;;;;;;8.00;8.00;;;;;12.24;60.03;100255.28;5055484;28;45559;-77
2021/12/04 07:08:29;;;;;;;;;5.00;5.00;;;;;12.24;60.75;100263.16;5055938;28;45373;-71
2021/12/04 07:10:55;;;;;;;;;5.00;2.00;;;;;12.19;61.17;100263.91;5052898;28;45547;-75
2021/12/04 07:13:21;;;;;;;;;6.00;5.33;;;;;12.24;61.68;100277.97;5054069;28;46295;-72
2021/12/04 07:15:46;;;;;;;;;3.00;3.00;;;;;12.22;61.48;100279.69;5055470;28;45492;-71
2021/12/04 07:18:13;;;;;;;;;5.00;4.00;;;;;12.17;61.84;100297.03;5055546;28;45433;-71
2021/12/04 07:20:39;;;;;;;;;6.33;6.33;;;;;12.16;62.73;100298.78;5055926;28;45427;-71
2021/12/04 07:23:05;;;;;;;;;9.00;8.25;;;;;12.13;62.73;100286.50;5055074;28;46306;-73
2021/12/04 07:25:31;;;;;;;;;4.33;4.33;;;;;12.11;62.73;100296.03;5055595;28;45331;-73
2021/12/04 07:27:58;;;;;;;;;4.00;3.67;;;;;12.06;63.12;100281.13;5055903;28;45449;-72
2021/12/04 07:30:25;;;;;;;;;3.00;3.00;;;;;12.05;63.20;100293.31;5055363;28;45517;-73
2021/12/04 07:32:51;;;;;;;;;6.33;6.00;;;;;11.99;63.11;100285.34;5055036;28;45659;-72
2021/12/04 07:35:17;;;;;;;;;2.33;2.00;;;;;11.94;63.32;100287.00;5055173;28;45486;-71
2021/12/04 07:37:44;;;;;;;;;6.00;6.00;;;;;11.93;63.71;100287.84;5055276;28;45419;-73
2021/12/04 07:40:11;;;;;;;;;2.00;2.00;;;;;11.81;63.84;100272.72;5053958;28;45497;-74
2021/12/04 07:42:37;;;;;;;;;2.00;1.00;;;;;11.86;63.84;100272.84;5055049;28;45737;-75
2021/12/04 07:45:03;;;;;;;;;3.00;2.67;;;;;11.74;64.40;100250.78;5054960;28;45368;-72
2021/12/04 07:47:29;;;;;;;;;3.67;3.00;;;;;11.71;64.97;100258.56;5055364;28;45330;-73
2021/12/04 07:49:56;;;;;;;;;3.00;2.33;;;;;11.73;65.09;100269.06;5055102;28;45386;-72
2021/12/04 07:52:21;;;;;;;;;3.00;3.00;;;;;11.68;65.07;100258.53;5054969;28;45951;-75
2021/12/04 07:54:49;;;;;;;;;4.33;4.33;;;;;11.68;65.43;100263.75;5054872;28;45177;-71
2021/12/04 07:57:15;;;;;;;;;1.00;1.00;;;;;11.58;65.84;100247.81;5054974;28;45591;-74
2021/12/04 07:59:41;;;;;;;;;2.67;2.00;;;;;11.64;65.91;100264.53;5054937;28;45545;-73
2021/12/04 08:02:07;;;;;;;;;3.00;3.00;;;;;11.67;65.31;100251.50;5054751;28;47495;-71
2021/12/04 08:04:33;;;;;;;;;2.00;2.00;;;;;11.63;65.69;100249.69;5054595;28;45481;-71
2021/12/04 08:06:58;;;;;;;;;3.00;2.33;;;;;11.60;66.13;100233.03;5053888;28;45470;-71
2021/12/04 08:09:24;;;;;;;;;2.00;2.00;;;;;11.65;65.63;100242.75;5057073;28;45468;-71
2021/12/04 08:11:50;;;;;;;;;5.00;2.00;;;;;11.66;65.66;100262.84;5054474;28;47087;-73
2021/12/04 08:14:17;;;;;;;;;3.00;2.67;;;;;11.65;66.44;100255.81;5057101;28;45485;-75
2021/12/04 08:16:44;;;;;;;;;2.00;1.00;;;;;11.63;65.88;100225.25;5056542;28;45452;-72
2021/12/04 08:19:09;;;;;;;;;2.00;2.00;;;;;11.63;66.11;100226.13;5058541;28;45409;-71
2021/12/04 08:21:35;;;;;;;;;2.00;2.00;;;;;11.71;65.88;100239.38;5058492;28;45339;-71
2021/12/04 08:24:02;;;;;;;;;4.67;4.67;;;;;11.68;66.48;100240.22;5058245;28;45402;-72
2021/12/04 08:26:28;;;;;;;;;3.67;3.67;;;;;11.78;66.00;100243.00;5058325;28;45389;-70
2021/12/04 08:28:53;;;;;;;;;3.00;2.00;;;;;11.84;65.48;100241.41;5059493;28;45424;-70
2021/12/04 08:31:19;;;;;;;;;5.50;4.00;;;;;11.87;65.05;100219.63;5058742;28;46362;-69
2021/12/04 08:33:44;;;;;;;;;1.00;1.00;;;;;11.94;64.90;100225.06;5058019;28;45457;-71
2021/12/04 08:36:10;;;;;;;;;1.67;1.67;;;;;12.03;64.54;100234.81;5053539;28;45591;-70
2021/12/04 08:38:37;;;;;;;;;2.00;2.00;;;;;11.97;64.77;100220.72;5056871;28;45473;-68
2021/12/04 08:41:03;;;;;;;;;3.00;3.00;;;;;12.10;64.71;100249.78;5053264;28;46481;-71
2021/12/04 08:43:29;;;;;;;;;2.00;2.00;;;;;12.12;64.33;100249.81;5056290;28;45709;-71
2021/12/04 08:45:56;;;;;;;;;3.33;2.00;;;;;12.16;64.13;100246.41;5073657;28;45616;-70
2021/12/04 08:48:21;;;;;;;;;2.00;1.33;;;;;12.15;63.88;100244.63;5055352;28;45884;-71
2021/12/04 08:50:48;;;;;;;;;4.00;3.67;;;;;12.22;64.35;100254.38;5053637;28;46054;-70
2021/12/04 08:53:14;;;;;;;;;3.00;3.00;;;;;12.27;64.18;100276.28;5027926;27;45797;-73
2021/12/04 08:55:42;;;;;;;;;5.00;4.00;;;;;12.30;64.59;100272.84;5055963;28;45477;-69
2021/12/04 08:58:09;;;;;;;;;8.00;7.00;;;;;12.34;65.10;100274.69;5056977;28;45507;-74
2021/12/04 09:00:46;;;;;;;;;6.00;6.00;;;;;12.41;64.99;100271.28;5056995;28;45461;-76
2021/12/04 09:03:12;;;;;;;;;14.00;13.25;;;;;12.48;65.15;100285.41;5056898;28;45877;-82
2021/12/04 09:05:38;;;;;;;;;7.00;7.00;;;;;12.56;65.03;100290.78;5056648;28;45569;-72
2021/12/04 09:08:06;;;;;;;;;13.75;13.00;;;;;12.61;65.17;100300.47;5056789;28;45584;-74
2021/12/04 09:10:32;;;;;;;;;5.33;4.67;;;;;12.59;64.58;100275.09;5056916;28;46186;-77
2021/12/04 09:12:58;;;;;;;;;6.00;5.00;;;;;12.79;64.84;100305.16;5057723;28;45445;-73
2021/12/04 09:15:31;;;;;;;;;5.00;4.33;;;;;12.86;64.91;100322.75;5058536;28;45475;-70
2021/12/04 09:17:58;;;;;;;;;2.67;2.00;;;;;12.94;64.91;100326.38;5054739;28;45777;-87
2021/12/04 09:20:23;;;;;;;;;1.00;1.00;;;;;12.96;65.20;100321.19;5055944;28;45516;-76
2021/12/04 09:22:51;;;;;;;;;1.00;0.67;;;;;13.00;65.07;100322.13;5054641;28;45403;-77
2021/12/04 09:25:24;;;;;;;;;0.00;0.00;;;;;13.01;64.72;100316.91;5056138;28;45794;-73
2021/12/04 10:04:05;;;;;;;;;1.00;1.00;;;;;13.52;66.04;100378.06;5055658;28;45386;-81
2021/12/04 10:33:47;;;;;;;;;11.00;10.00;;;;;12.04;68.82;100209.53;5058205;28;45489;-76
2021/12/04 10:36:31;;;;;;;;;2.00;2.00;;;;;11.83;69.29;100184.66;5056439;28;47853;-77
2021/12/04 10:38:58;;;;;;;;;1.00;1.00;;;;;12.69;69.92;100332.97;5056254;28;45598;-83
2021/12/04 10:41:45;;;;;;;;;1.00;1.00;;;;;13.06;70.00;100420.13;5057871;28;45387;-78
2021/12/04 10:44:25;;;;;;;;;1.00;0.00;;;;;13.18;70.33;100429.94;5057824;28;45182;-76
2021/12/04 10:46:59;;;;;;;;;1.00;1.00;;;;;13.19;70.67;100455.34;5056217;28;45482;-78
2021/12/04 10:49:49;;;;;;;;;3.00;3.00;;;;;12.83;71.73;100397.84;5057475;28;45486;-81
2021/12/04 10:52:49;;;;;;;;;0.00;0.00;;;;;13.53;71.56;100482.19;5041416;28;45464;-82
2021/12/04 10:55:24;;;;;;;;;0.33;0.33;;;;;13.70;70.95;100475.44;5056624;28;45607;-84
2021/12/04 11:20:19;;;;;;;;;1.33;1.00;;;;;14.10;69.08;100456.78;5057099;28;45845;-80
2021/12/04 11:25:53;;;;;;;;;6.67;4.00;;;;;14.21;68.59;100486.72;5015094;28;45405;-79
2021/12/04 11:28:31;;;;;;;;;5.33;4.67;;;;;13.25;68.90;100332.16;5014765;28;45579;-76
2021/12/04 11:36:57;;;;;;;;;6.00;5.00;;;;;14.37;67.57;100519.38;5057156;28;45408;-73
2021/12/04 11:42:19;;;;;;;;;3.33;2.00;;;;;14.24;66.08;100470.13;5057416;28;45414;-78
2021/12/04 11:44:52;;;;;;;;;8.00;5.67;;;;;14.43;65.22;100515.94;5058948;28;45502;-76
2021/12/04 11:47:19;;;;;;;;;4.33;3.67;;;;;14.22;64.55;100509.50;5059179;28;45364;-79
2021/12/04 11:49:45;;;;;;;;;7.33;7.00;;;;;14.05;65.77;100496.13;5059162;28;45735;-75
2021/12/04 11:52:18;;;;;;;;;2.00;1.00;;;;;14.55;64.73;100520.47;5058694;28;46700;-70
2021/12/04 11:54:53;;;;;;;;;6.67;5.00;;;;;14.73;64.08;100499.72;5059684;28;45503;-80
2021/12/04 11:57:33;;;;;;;;;3.33;2.33;;;;;14.84;63.53;100506.00;5060133;28;45477;-85
2021/12/04 12:00:18;;;;;;;;;3.33;2.00;;;;;14.88;62.91;100499.00;5058996;28;45611;-84
2021/12/04 12:02:44;;;;;;;;;3.00;2.00;;;;;14.90;63.17;100498.16;5058665;28;46112;-81
2021/12/04 12:05:20;;;;;;;;;5.00;3.00;;;;;14.53;62.65;100474.00;5060225;28;45327;-81
2021/12/04 12:07:55;;;;;;;;;4.00;2.00;;;;;14.17;62.59;100442.03;5060491;28;45324;-84
2021/12/04 12:10:26;;;;;;;;;3.33;2.67;;;;;14.24;63.90;100504.28;5058891;28;45407;-81
2021/12/04 12:13:04;;;;;;;;;3.67;2.00;;;;;13.87;65.17;100506.38;5058593;28;46243;-82
2021/12/04 12:15:34;;;;;;;;;3.67;2.67;;;;;13.69;65.53;100480.69;5059939;28;45366;-77
2021/12/04 12:18:15;;;;;;;;;3.00;2.00;;;;;13.53;66.20;100469.06;5060154;28;45497;-83
2021/12/04 12:20:45;;;;;;;;;5.00;4.00;;;;;13.71;67.02;100500.84;5058955;28;45608;-76
2021/12/04 12:23:15;;;;;;;;;5.33;3.00;;;;;13.90;66.42;100503.78;5058104;28;45534;-81
2021/12/04 12:36:47;;;;;;;;;2.33;2.00;;;;;14.71;61.66;100488.28;5036944;28;45571;-81
2021/12/04 12:39:16;;;;;;;;;4.00;4.00;;;;;14.74;62.17;100476.91;5055587;28;45483;-81
2021/12/04 12:41:47;;;;;;;;;4.33;3.00;;;;;14.55;62.08;100471.41;5064115;28;45304;-83
2021/12/04 12:44:25;;;;;;;;;6.67;3.00;;;;;14.34;61.67;100487.78;5058191;28;46311;-78
2021/12/04 12:46:52;;;;;;;;;7.00;4.00;;;;;14.11;62.69;100485.72;5059976;28;45349;-80
2021/12/04 12:49:41;;;;;;;;;3.33;2.67;;;;;13.94;63.51;100502.94;5069669;28;45457;-84
2021/12/04 12:52:18;;;;;;;;;6.67;3.00;;;;;13.86;63.71;100499.34;5069658;28;45534;-85
2021/12/04 12:54:43;;;;;;;;;3.00;2.00;;;;;13.61;64.51;100498.94;5065872;28;47257;-72
2021/12/04 12:57:23;;;;;;;;;3.33;3.33;;;;;13.39;65.86;100491.53;5064558;28;45310;-84
2021/12/04 13:14:45;;;;;;;;;6.33;3.00;;;;;13.36;67.08;100476.63;5059422;28;45402;-79
2021/12/04 13:17:20;;;;;;;;;3.67;2.00;;;;;13.35;65.14;100452.97;5050378;28;46216;-84
2021/12/04 13:19:50;;;;;;;;;4.00;2.00;;;;;13.46;64.97;100454.94;5059092;28;45398;-78
2021/12/04 13:22:23;;;;;;;;;4.67;3.33;;;;;13.70;64.39;100457.06;5058725;28;45430;-74
2021/12/04 13:24:53;;;;;;;;;3.00;2.00;;;;;13.84;63.37;100427.53;5059199;28;45469;-77
2021/12/04 13:29:53;;;;;;;;;2.00;1.00;;;;;13.60;63.04;100410.53;5058364;28;45439;-70
2021/12/04 13:32:29;;;;;;;;;2.67;2.33;;;;;13.43;63.58;100415.53;5058678;28;45526;-72
2021/12/04 13:35:01;;;;;;;;;5.00;3.00;;;;;13.37;64.30;100448.66;5058958;28;45409;-74
2021/12/04 13:37:27;;;;;;;;;2.00;2.00;;;;;13.09;64.92;100471.72;5058554;28;45408;-76
2021/12/04 13:40:00;;;;;;;;;7.00;3.00;;;;;13.00;66.21;100498.69;5058610;28;45469;-75
2021/12/04 13:42:26;;;;;;;;;2.33;2.00;;;;;12.94;66.75;100503.81;5058782;28;45212;-76
2021/12/04 13:45:03;;;;;;;;;3.33;2.00;;;;;12.77;67.91;100502.56;5056235;28;45462;-70
2021/12/04 13:47:29;;;;;;;;;3.33;1.00;;;;;12.58;68.40;100522.28;5056338;28;45668;-73
2021/12/04 13:50:07;;;;;;;;;2.67;2.00;;;;;12.48;69.37;100519.47;5056479;28;45854;-73
2021/12/04 13:52:33;;;;;;;;;2.00;1.33;;;;;12.46;68.26;100501.94;5057446;28;45334;-76
2021/12/04 13:55:05;;;;;;;;;2.00;1.00;;;;;12.43;67.94;100496.63;5058526;28;45388;-72
2021/12/04 13:57:30;;;;;;;;;1.00;1.00;;;;;12.47;67.15;100496.75;5058164;28;45514;-84
2021/12/04 13:59:58;;;;;;;;;2.00;1.00;;;;;12.54;67.11;100498.63;5056851;28;45561;-72
2021/12/04 14:02:27;;;;;;;;;0.00;0.00;;;;;12.51;66.56;100484.56;5056036;28;45581;-78
2021/12/04 14:05:00;;;;;;;;;3.00;2.00;;;;;12.51;66.72;100474.09;5056464;28;45396;-77
2021/12/04 14:07:27;;;;;;;;;1.33;0.00;;;;;12.54;67.16;100482.03;5053173;28;45434;-74
2021/12/04 14:09:53;;;;;;;;;1.00;0.00;;;;;12.46;66.01;100476.63;5043752;28;45444;-77
2021/12/04 14:12:19;;;;;;;;;1.00;0.00;;;;;12.47;65.77;100475.78;5056635;28;45578;-75
2021/12/04 14:14:45;;;;;;;;;0.00;0.00;;;;;12.39;66.56;100469.47;5053124;28;45442;-79
2021/12/04 14:17:14;;;;;;;;;3.33;1.00;;;;;12.46;66.47;100484.50;5054316;28;46191;-71
2021/12/04 14:19:40;;;;;;;;;2.67;1.33;;;;;12.40;66.45;100504.44;5056354;28;45501;-78
2021/12/04 14:22:18;;;;;;;;;2.00;0.33;;;;;12.27;67.51;100524.22;5056462;28;45381;-77
2021/12/04 14:24:56;;;;;;;;;4.00;3.67;;;;;12.20;69.12;100566.84;5054458;28;45490;-73
2021/12/04 14:27:25;;;;;;;;;1.00;0.00;;;;;11.87;68.47;100534.59;5053721;28;45544;-72
2021/12/04 14:30:04;;;;;;;;;1.00;0.00;;;;;11.68;65.80;100530.66;5080244;27;45418;-72
2021/12/04 14:32:33;;;;;;;;;2.00;0.00;;;;;11.64;66.70;100530.53;5054643;28;45604;-76
2021/12/04 14:35:06;;;;;;;;;0.00;0.00;;;;;11.70;67.80;100539.44;5056185;28;45436;-78